Time;durP1;ratioP1;P1;durP2;ratioP2;P2;SDS_P1;SDS_P2;PMS_P1;PMS_P2;Temp;Humidity;BMP_temperature;BMP_pressure;BME280_temperature;BME280_humidity;BME280_pressure;Samples;Min_cycle;Max_cycle;Signal;HPM_P1;HPM_P2
2022/08/16 00:00:07;;;;;;;1.98;1.30;;;18.40;64.20;20.60;93413.00;;;;10436419;28;45387;-64
2022/08/16 00:05:30;;;;;;;2.78;1.38;;;18.40;63.90;20.50;93392.00;;;;10436168;28;45176;-64
2022/08/16 00:10:51;;;;;;;1.80;1.35;;;18.40;63.80;20.50;93414.00;;;;10435693;28;45182;-64
2022/08/16 00:16:12;;;;;;;1.85;1.30;;;18.40;63.80;20.50;93419.00;;;;10452012;28;45174;-64
2022/08/16 00:21:34;;;;;;;2.67;1.60;;;18.30;63.60;20.50;93421.00;;;;10436076;28;45194;-64
2022/08/16 00:26:55;;;;;;;2.08;1.58;;;18.30;63.50;20.40;93419.00;;;;10423685;28;45222;-63
2022/08/16 00:32:16;;;;;;;2.08;1.45;;;18.30;63.50;20.50;93426.00;;;;10436155;28;45231;-63
2022/08/16 00:37:37;;;;;;;1.85;1.40;;;18.30;63.40;20.40;93424.00;;;;10434453;28;45251;-64
2022/08/16 00:42:58;;;;;;;2.38;1.58;;;18.20;63.30;20.40;93403.00;;;;10422574;28;45191;-63
2022/08/16 00:48:18;;;;;;;2.15;1.40;;;18.20;63.20;20.40;93403.00;;;;10434929;28;45196;-63
2022/08/16 00:53:41;;;;;;;2.22;1.50;;;18.20;63.00;20.40;93403.00;;;;10433830;28;45509;-64
2022/08/16 00:59:04;;;;;;;2.05;1.50;;;18.20;63.00;20.30;93408.00;;;;10431678;28;45196;-65
2022/08/16 01:04:27;;;;;;;2.10;1.27;;;18.20;63.00;20.40;93419.00;;;;10430316;28;45261;-64
2022/08/16 01:09:49;;;;;;;1.65;1.38;;;18.20;62.80;20.30;93414.00;;;;10434427;28;45186;-64
2022/08/16 01:15:11;;;;;;;2.67;1.45;;;18.20;63.60;20.30;93421.00;;;;10450647;28;45203;-64
2022/08/16 01:20:39;;;;;;;2.47;1.48;;;18.20;62.80;20.30;93413.00;;;;10433801;28;45144;-63
2022/08/16 01:26:00;;;;;;;;;;;18.10;62.80;20.30;93429.00;;;;10433696;28;45136;-63
2022/08/16 01:31:23;;;;;;;2.03;1.45;;;18.10;62.50;20.30;93433.00;;;;10434489;28;45274;-64
2022/08/16 01:36:43;;;;;;;2.85;1.63;;;18.10;62.60;20.20;93430.00;;;;10433955;28;45090;-64
2022/08/16 01:42:07;;;;;;;2.25;1.58;;;18.10;62.70;20.20;93425.00;;;;10427241;28;45120;-64
2022/08/16 01:47:29;;;;;;;2.00;1.50;;;18.00;63.30;20.20;93416.00;;;;10432260;28;45219;-64
2022/08/16 01:52:50;;;;;;;1.90;1.40;;;18.10;62.30;20.20;93423.00;;;;10422499;28;45493;-63
2022/08/16 01:58:14;;;;;;;2.15;1.65;;;18.00;62.20;20.20;93434.00;;;;10432097;28;45212;-63
2022/08/16 02:03:35;;;;;;;2.53;1.60;;;18.00;62.00;20.20;93421.00;;;;10435920;28;45185;-63
2022/08/16 02:08:56;;;;;;;2.35;1.77;;;18.00;62.10;20.20;93418.00;;;;10428603;28;45144;-63
2022/08/16 02:14:19;;;;;;;2.50;1.45;;;18.00;61.80;20.20;93417.00;;;;10453316;28;45152;-63
2022/08/16 02:19:42;;;;;;;2.28;1.73;;;18.00;61.90;20.10;93431.00;;;;10436407;28;45229;-63
2022/08/16 02:25:08;;;;;;;3.63;1.60;;;18.00;61.80;20.10;93419.00;;;;10426206;28;45225;-63
2022/08/16 02:30:32;;;;;;;3.03;1.95;;;18.00;61.70;20.10;93424.00;;;;10439887;28;45135;-64
2022/08/16 02:35:53;;;;;;;2.45;1.75;;;18.00;61.80;20.10;93420.00;;;;10439423;28;45054;-63
2022/08/16 02:41:14;;;;;;;1.80;1.40;;;18.00;61.70;20.10;93410.00;;;;10439276;28;45154;-64
2022/08/16 02:46:35;;;;;;;3.22;1.73;;;18.00;61.60;20.00;93408.00;;;;10438896;28;45229;-64
2022/08/16 02:51:56;;;;;;;2.55;1.80;;;18.00;61.70;20.00;93418.00;;;;10438790;28;45217;-64
2022/08/16 02:57:18;;;;;;;2.50;1.70;;;17.90;61.70;20.00;93409.00;;;;10424447;28;45172;-64
2022/08/16 03:02:40;;;;;;;2.58;1.77;;;17.90;61.50;20.00;93421.00;;;;10437570;28;45219;-65
2022/08/16 03:08:02;;;;;;;2.28;1.65;;;17.80;61.40;20.00;93393.00;;;;10437331;28;45228;-65
2022/08/16 03:13:23;;;;;;;2.83;1.70;;;17.80;61.20;19.90;93409.00;;;;10442844;28;45592;-64
2022/08/16 03:18:45;;;;;;;2.50;1.58;;;17.80;61.30;19.90;93385.00;;;;10426676;28;45120;-64
2022/08/16 03:24:07;;;;;;;2.92;2.00;;;17.80;61.20;19.80;93392.00;;;;10437068;28;45246;-64
2022/08/16 03:29:28;;;;;;;2.90;1.90;;;17.70;61.30;19.90;93372.00;;;;10437643;28;45273;-64
2022/08/16 03:34:50;;;;;;;3.42;2.30;;;17.70;61.40;19.90;93379.00;;;;10436246;28;45192;-64
2022/08/16 03:40:14;;;;;;;3.65;2.47;;;17.70;61.50;19.80;93361.00;;;;10437324;28;45328;-65
2022/08/16 03:45:35;;;;;;;3.45;2.38;;;17.70;61.90;19.80;93366.00;;;;10431878;28;45197;-65
2022/08/16 03:50:57;;;;;;;3.72;2.42;;;17.70;62.10;19.80;93352.00;;;;10423612;28;45369;-65
2022/08/16 03:56:17;;;;;;;3.13;2.15;;;17.60;62.10;19.80;93369.00;;;;10444244;28;45198;-65
2022/08/16 04:01:38;;;;;;;3.75;2.10;;;17.60;61.90;19.80;93362.00;;;;10436964;28;45237;-65
2022/08/16 04:07:01;;;;;;;3.47;2.20;;;17.70;62.00;19.80;93367.00;;;;10436776;28;45328;-64
2022/08/16 04:12:21;;;;;;;3.53;2.30;;;17.70;61.90;19.80;93349.00;;;;10436405;28;45264;-63
2022/08/16 04:17:42;;;;;;;2.75;2.00;;;17.70;61.70;19.80;93363.00;;;;10434929;28;45349;-64
2022/08/16 04:23:06;;;;;;;2.40;1.80;;;17.60;61.60;19.70;93349.00;;;;10434985;28;45317;-64
2022/08/16 04:28:27;;;;;;;3.83;2.30;;;17.60;61.90;19.70;93363.00;;;;10423057;28;45435;-64
2022/08/16 04:33:47;;;;;;;2.65;1.85;;;17.60;61.90;19.70;93366.00;;;;10435960;28;45204;-65
2022/08/16 04:39:09;;;;;;;2.60;2.00;;;17.50;61.90;19.70;93357.00;;;;10435223;28;45139;-64
2022/08/16 04:44:30;;;;;;;3.30;1.95;;;17.50;61.90;19.70;93356.00;;;;10421942;28;45252;-64
2022/08/16 04:49:51;;;;;;;3.08;1.83;;;17.50;61.80;19.70;93360.00;;;;10435161;28;45238;-64
2022/08/16 04:55:16;;;;;;;4.65;1.90;;;17.50;61.90;19.70;93371.00;;;;10458728;28;45269;-63
2022/08/16 05:00:37;;;;;;;3.53;2.00;;;17.50;62.00;19.70;93373.00;;;;10421525;28;45191;-64
2022/08/16 05:05:57;;;;;;;2.75;1.90;;;17.50;61.90;19.70;93358.00;;;;10425306;28;45511;-63
2022/08/16 05:11:21;;;;;;;2.95;1.80;;;17.50;61.70;19.70;93372.00;;;;10434279;28;45288;-64
2022/08/16 05:16:43;;;;;;;3.58;1.90;;;17.60;61.80;19.60;93358.00;;;;10434130;28;45191;-64
2022/08/16 05:22:04;;;;;;;3.40;2.20;;;17.50;62.20;19.60;93362.00;;;;10433941;28;45156;-63
2022/08/16 05:27:26;;;;;;;3.00;2.20;;;17.50;62.60;19.60;93364.00;;;;10433281;28;45141;-64
2022/08/16 05:32:46;;;;;;;3.22;1.80;;;17.50;63.00;19.60;93364.00;;;;10434477;28;45285;-63
2022/08/16 05:38:07;;;;;;;2.65;1.80;;;17.50;63.40;19.60;93356.00;;;;10424425;28;45287;-63
2022/08/16 05:43:29;;;;;;;2.63;1.70;;;17.50;63.60;19.70;93366.00;;;;10441259;28;45193;-64
2022/08/16 05:48:50;;;;;;;2.30;1.75;;;17.50;63.90;19.70;93365.00;;;;10440416;28;45207;-64
2022/08/16 05:54:13;;;;;;;3.25;1.67;;;17.60;64.30;19.70;93361.00;;;;10460914;28;45274;-63
2022/08/16 05:59:35;;;;;;;2.83;1.80;;;17.60;64.50;19.70;93363.00;;;;10438958;28;45527;-63
2022/08/16 06:04:56;;;;;;;3.03;1.67;;;17.60;64.70;19.70;93376.00;;;;10440247;28;45237;-64
2022/08/16 06:10:17;;;;;;;2.55;1.95;;;17.60;64.70;19.70;93379.00;;;;10440168;28;45071;-63
2022/08/16 06:15:39;;;;;;;2.88;1.83;;;17.60;64.90;19.80;93381.00;;;;10428687;28;45135;-64
2022/08/16 06:21:00;;;;;;;3.28;1.90;;;17.60;65.30;19.80;93396.00;;;;10439128;28;45244;-63
2022/08/16 06:26:21;;;;;;;2.85;2.03;;;17.70;65.60;19.80;93385.00;;;;10438951;28;45477;-64
2022/08/16 06:31:43;;;;;;;2.72;1.77;;;17.70;65.80;19.80;93381.00;;;;10439248;28;45418;-63
2022/08/16 06:37:04;;;;;;;1.85;1.60;;;17.70;66.60;19.90;93410.00;;;;10438904;28;45214;-63
2022/08/16 06:42:25;;;;;;;2.50;1.60;;;17.80;66.20;19.90;93408.00;;;;10439987;28;45386;-64
2022/08/16 06:47:47;;;;;;;2.42;1.77;;;17.80;66.30;19.90;93402.00;;;;10420158;28;45182;-63
2022/08/16 06:53:08;;;;;;;3.15;1.98;;;17.80;66.40;19.90;93398.00;;;;10446162;28;45238;-63
2022/08/16 06:58:28;;;;;;;3.17;1.90;;;17.80;66.70;19.90;93419.00;;;;10438421;28;45117;-65
2022/08/16 07:03:51;;;;;;;2.83;1.70;;;17.80;66.40;19.90;93400.00;;;;10438804;28;45103;-63
2022/08/16 07:09:13;;;;;;;4.25;1.75;;;17.80;66.10;19.90;93411.00;;;;10438171;28;45404;-64
2022/08/16 07:14:34;;;;;;;2.58;1.90;;;17.90;66.00;20.00;93411.00;;;;10436236;28;45361;-64
2022/08/16 07:19:56;;;;;;;1.73;1.40;;;17.90;65.80;20.00;93411.00;;;;10437303;28;45233;-64
2022/08/16 07:25:18;;;;;;;2.97;1.60;;;17.90;65.60;20.00;93399.00;;;;10437088;28;45432;-65
2022/08/16 07:30:39;;;;;;;2.28;1.55;;;17.90;65.40;20.00;93399.00;;;;10437786;28;45182;-65
2022/08/16 07:36:01;;;;;;;2.80;1.70;;;17.90;65.20;20.00;93391.00;;;;10436956;28;45373;-64
2022/08/16 07:41:22;;;;;;;2.70;1.70;;;18.00;65.30;20.00;93400.00;;;;10436561;28;45263;-65
2022/08/16 07:46:43;;;;;;;2.17;1.50;;;18.00;65.30;20.00;93400.00;;;;10430777;28;45225;-65
2022/08/16 07:52:05;;;;;;;2.17;1.60;;;18.00;65.50;20.10;93403.00;;;;10434516;28;45450;-65
2022/08/16 07:57:25;;;;;;;2.95;1.60;;;18.00;65.90;20.10;93417.00;;;;10435582;28;45473;-64
2022/08/16 08:02:47;;;;;;;1.92;1.48;;;18.10;66.30;20.10;93423.00;;;;10429344;28;45344;-65
2022/08/16 08:08:10;;;;;;;3.58;1.63;;;18.00;66.10;20.10;93425.00;;;;10429093;28;45142;-65
2022/08/16 08:13:31;;;;;;;2.03;1.40;;;18.00;66.30;20.10;93434.00;;;;10428958;28;45203;-65
2022/08/16 08:18:53;;;;;;;2.22;1.48;;;18.10;66.50;20.10;93422.00;;;;10431261;28;45249;-67
2022/08/16 08:24:16;;;;;;;2.90;1.60;;;18.10;66.00;20.20;93452.00;;;;10436418;28;45558;-65
2022/08/16 08:29:37;;;;;;;1.85;1.52;;;18.10;65.20;20.20;93446.00;;;;10436080;28;45317;-62
2022/08/16 08:35:01;;;;;;;1.60;1.20;;;18.20;64.90;20.30;93450.00;;;;10435965;28;45137;-62
2022/08/16 08:40:24;;;;;;;2.05;1.00;;;18.20;64.20;20.30;93452.00;;;;10431744;28;45224;-62
2022/08/16 08:45:46;;;;;;;1.55;1.13;;;18.20;63.80;20.30;93459.00;;;;10429233;28;45398;-63
2022/08/16 08:51:08;;;;;;;2.70;1.40;;;18.30;63.90;20.30;93466.00;;;;10416892;28;45321;-63
2022/08/16 08:56:32;;;;;;;2.13;1.20;;;18.30;65.30;20.20;93455.00;;;;10443730;28;45237;-63
2022/08/16 09:01:53;;;;;;;2.80;1.67;;;18.20;65.10;20.20;93462.00;;;;10427947;28;45242;-64
2022/08/16 09:07:13;;;;;;;2.92;1.30;;;18.30;65.10;20.30;93466.00;;;;10415058;28;45400;-63
2022/08/16 09:12:36;;;;;;;2.05;1.30;;;18.20;64.50;20.30;93476.00;;;;10431657;28;45146;-63
2022/08/16 09:17:57;;;;;;;1.95;1.30;;;18.20;64.40;20.30;93460.00;;;;10434236;28;45185;-63
2022/08/16 09:23:17;;;;;;;2.40;1.50;;;18.30;64.60;20.30;93467.00;;;;10433406;28;45219;-64
2022/08/16 09:28:39;;;;;;;3.78;1.55;;;18.20;64.30;20.30;93463.00;;;;10434856;28;45333;-63
2022/08/16 09:34:00;;;;;;;1.90;1.30;;;18.20;63.90;20.30;93450.00;;;;10434405;28;45220;-63
2022/08/16 09:39:21;;;;;;;2.72;1.23;;;18.20;64.00;20.40;93459.00;;;;10434301;28;45383;-63
2022/08/16 09:44:43;;;;;;;3.22;1.30;;;18.30;63.50;20.30;93460.00;;;;10422026;28;45125;-63
2022/08/16 09:50:05;;;;;;;2.22;1.25;;;18.30;63.40;20.30;93449.00;;;;10433351;28;45285;-63
2022/08/16 09:55:26;;;;;;;2.83;1.40;;;18.30;63.10;20.30;93461.00;;;;10448616;28;45261;-63
2022/08/16 10:00:49;;;;;;;2.28;1.55;;;18.20;62.80;20.30;93459.00;;;;10421033;28;45204;-63
2022/08/16 10:06:10;;;;;;;1.50;1.10;;;18.30;62.90;20.30;93457.00;;;;10425057;28;45138;-63
2022/08/16 10:17:11;;;;;;;2.15;1.35;;;18.30;62.50;20.30;93457.00;;;;10432145;28;45181;-63
2022/08/16 10:22:31;;;;;;;1.67;1.17;;;18.30;62.50;20.40;93454.00;;;;10431699;28;45262;-63
2022/08/16 10:27:52;;;;;;;1.67;1.35;;;18.30;62.20;20.30;93442.00;;;;10431775;28;45184;-63
2022/08/16 10:33:14;;;;;;;1.20;1.10;;;18.30;62.20;20.40;93457.00;;;;10419961;28;45254;-63
2022/08/16 10:38:38;;;;;;;1.30;1.10;;;18.30;62.10;20.40;93461.00;;;;10432369;28;45286;-63
2022/08/16 10:43:59;;;;;;;1.73;1.10;;;18.30;62.00;20.40;93449.00;;;;10432086;28;45257;-63
2022/08/16 10:49:20;;;;;;;2.72;1.42;;;18.30;61.90;20.40;93459.00;;;;10431647;28;45276;-63
2022/08/16 10:54:41;;;;;;;2.13;1.42;;;18.30;61.90;20.40;93442.00;;;;10443278;28;45328;-63
2022/08/16 11:00:06;;;;;;;1.40;1.20;;;18.30;61.70;20.40;93451.00;;;;10443484;28;45278;-63
2022/08/16 11:05:29;;;;;;;3.08;1.40;;;18.30;61.70;20.40;93453.00;;;;10435075;28;45276;-63
2022/08/16 11:10:50;;;;;;;2.53;1.17;;;18.30;61.90;20.40;93449.00;;;;10433842;28;45125;-62
2022/08/16 11:16:11;;;;;;;1.52;1.25;;;18.30;61.70;20.40;93438.00;;;;10437364;28;45174;-64
2022/08/16 11:21:33;;;;;;;1.75;1.33;;;18.30;61.50;20.40;93449.00;;;;10437322;28;45287;-64
2022/08/16 11:26:54;;;;;;;2.15;1.38;;;18.30;61.20;20.40;93450.00;;;;10435787;28;45196;-64
2022/08/16 11:32:16;;;;;;;2.42;1.40;;;18.30;61.10;20.40;93443.00;;;;10430987;28;45164;-64
2022/08/16 11:37:38;;;;;;;2.42;1.58;;;18.40;61.20;20.40;93428.00;;;;10436189;28;45223;-64
2022/08/16 11:43:00;;;;;;;3.13;1.38;;;18.30;61.10;20.40;93439.00;;;;10436703;28;45236;-64
2022/08/16 11:48:20;;;;;;;2.83;1.50;;;18.40;61.10;20.50;93430.00;;;;10435969;28;45136;-64
2022/08/16 11:53:42;;;;;;;1.92;1.42;;;18.40;61.10;20.50;93398.00;;;;10438026;28;45171;-65
2022/08/16 11:59:02;;;;;;;3.63;1.80;;;18.40;61.20;20.50;93426.00;;;;10458647;28;45375;-64
2022/08/16 12:04:32;;;;;;;1.70;1.23;;;18.40;61.20;20.50;93434.00;;;;10597082;27;45174;-63
2022/08/16 12:09:54;;;;;;;3.40;1.42;;;18.40;61.20;20.50;93432.00;;;;10516889;27;45860;-63
2022/08/16 12:15:15;;;;;;;1.58;1.30;;;18.40;61.10;20.50;93431.00;;;;10496556;28;45516;-62
2022/08/16 12:20:41;;;;;;;1.85;1.25;;;18.40;61.00;20.50;93423.00;;;;10489327;28;45191;-62
2022/08/16 12:26:02;;;;;;;1.77;1.27;;;18.40;60.90;20.60;93418.00;;;;10486122;28;45816;-63
2022/08/16 12:31:23;;;;;;;1.30;1.10;;;18.50;60.50;20.60;93415.00;;;;10509977;28;45879;-63
2022/08/16 12:36:46;;;;;;;2.85;1.30;;;18.50;60.40;20.60;93403.00;;;;10496487;28;45200;-62
2022/08/16 12:42:08;;;;;;;2.45;1.30;;;18.50;60.30;20.60;93419.00;;;;10504255;28;45097;-62
2022/08/16 12:53:08;;;;;;;1.73;1.40;;;18.50;59.70;20.60;93413.00;;;;10503074;28;45174;-63
2022/08/16 12:58:29;;;;;;;1.98;1.52;;;18.50;59.70;20.60;93414.00;;;;10499172;28;45187;-62
2022/08/16 13:03:54;;;;;;;2.00;1.40;;;18.50;59.80;20.60;93417.00;;;;10496562;28;45878;-62
2022/08/16 13:09:23;;;;;;;1.83;1.30;;;18.50;60.00;20.60;93411.00;;;;10497540;28;45128;-62
2022/08/16 13:14:45;;;;;;;2.03;1.30;;;18.50;60.00;20.60;93398.00;;;;10488146;28;45175;-62
2022/08/16 13:20:10;;;;;;;2.17;1.42;;;18.50;59.90;20.60;93393.00;;;;10467747;28;45901;-62
2022/08/16 13:25:35;;;;;;;2.10;1.30;;;18.50;59.70;20.60;93399.00;;;;10459481;28;45171;-62
2022/08/16 13:30:57;;;;;;;1.52;1.27;;;18.50;59.50;20.60;93396.00;;;;10458995;28;45111;-62
2022/08/16 13:36:18;;;;;;;3.10;1.48;;;18.50;59.40;20.60;93392.00;;;;10467328;28;45763;-62
2022/08/16 13:41:40;;;;;;;2.88;1.30;;;18.50;59.50;20.60;93399.00;;;;10458639;28;45199;-62
2022/08/16 13:47:00;;;;;;;1.60;1.20;;;18.60;59.50;20.60;93394.00;;;;10458532;28;45901;-62
2022/08/16 13:52:23;;;;;;;2.60;1.40;;;18.60;59.20;20.70;93391.00;;;;10466313;28;45384;-62
2022/08/16 13:57:45;;;;;;;1.45;1.20;;;18.60;59.10;20.70;93387.00;;;;10470693;28;45159;-62
2022/08/16 14:03:07;;;;;;;1.58;1.25;;;18.60;58.80;20.70;93385.00;;;;10467004;28;45224;-62
2022/08/16 14:08:27;;;;;;;2.88;1.15;;;18.60;58.50;20.70;93385.00;;;;10435630;28;45160;-62
2022/08/16 14:13:50;;;;;;;2.10;1.20;;;18.60;58.50;20.80;93364.00;;;;10462177;28;45092;-63
2022/08/16 14:19:16;;;;;;;2.35;1.30;;;18.70;58.80;20.80;93380.00;;;;10464564;27;45451;-63
2022/08/16 14:24:37;;;;;;;3.67;1.27;;;18.80;58.80;20.80;93365.00;;;;10471470;28;45388;-65
2022/08/16 14:30:00;;;;;;;2.75;1.30;;;18.80;58.70;20.80;93367.00;;;;10472565;28;45267;-64
2022/08/16 14:35:25;;;;;;;2.78;1.35;;;18.70;58.60;20.80;93369.00;;;;10438277;28;45169;-64
2022/08/16 14:40:46;;;;;;;1.95;1.35;;;18.70;58.50;20.80;93358.00;;;;10466872;28;45269;-64
2022/08/16 14:46:08;;;;;;;2.00;1.33;;;18.70;58.20;20.80;93371.00;;;;10472179;28;45968;-64
2022/08/16 14:51:29;;;;;;;2.63;1.48;;;18.70;58.00;20.80;93363.00;;;;10462692;28;45445;-64
2022/08/16 14:56:50;;;;;;;1.63;1.25;;;18.70;57.80;20.80;93296.00;;;;10452648;28;45321;-64
2022/08/16 15:02:16;;;;;;;1.92;1.40;;;18.70;57.70;20.70;93345.00;;;;10468299;28;45452;-64
2022/08/16 15:07:37;;;;;;;1.60;1.37;;;18.70;57.50;20.80;93346.00;;;;10477304;28;45280;-64
2022/08/16 15:12:59;;;;;;;2.78;1.50;;;18.70;57.40;20.80;93341.00;;;;10469524;28;45185;-64
2022/08/16 15:18:21;;;;;;;1.80;1.40;;;18.70;57.30;20.80;93356.00;;;;10477772;28;45238;-64
2022/08/16 15:23:42;;;;;;;1.45;1.10;;;18.80;57.20;20.80;93349.00;;;;10445453;28;45160;-64
2022/08/16 15:29:02;;;;;;;1.80;1.27;;;18.80;57.10;20.80;93336.00;;;;10468016;28;45204;-64
2022/08/16 15:34:24;;;;;;;2.05;1.40;;;18.80;57.00;20.90;93339.00;;;;10470447;28;45334;-64
2022/08/16 15:39:46;;;;;;;2.95;1.27;;;18.80;56.80;20.90;93334.00;;;;10470640;28;45171;-64
2022/08/16 15:45:09;;;;;;;1.75;1.20;;;18.80;56.70;20.90;93337.00;;;;10469915;28;45225;-64
2022/08/16 15:50:31;;;;;;;1.40;1.30;;;18.80;56.50;20.90;93340.00;;;;10469888;28;45695;-64
2022/08/16 15:55:52;;;;;;;2.75;1.40;;;18.80;56.50;20.90;93325.00;;;;10469295;28;45211;-64
2022/08/16 16:01:13;;;;;;;1.55;1.20;;;18.80;56.40;20.90;93341.00;;;;10469296;28;45348;-64
2022/08/16 16:06:35;;;;;;;1.20;1.10;;;18.80;56.50;20.90;93330.00;;;;10445576;28;45741;-64
2022/08/16 16:11:56;;;;;;;1.67;1.02;;;18.80;56.20;20.90;93321.00;;;;10427751;28;45277;-64
2022/08/16 16:17:17;;;;;;;2.13;1.50;;;18.80;56.00;20.90;93325.00;;;;10454841;28;45688;-64
2022/08/16 16:22:39;;;;;;;2.47;1.40;;;18.90;56.10;20.90;93331.00;;;;10436368;28;45307;-64
2022/08/16 16:28:00;;;;;;;1.80;1.40;;;18.90;55.90;20.90;93331.00;;;;10458918;28;45267;-64
2022/08/16 16:33:25;;;;;;;2.47;1.35;;;18.80;55.80;21.00;93335.00;;;;10448776;28;45369;-64
2022/08/16 16:38:49;;;;;;;1.92;1.40;;;18.90;56.10;21.00;93336.00;;;;10442873;28;45435;-64
2022/08/16 16:44:09;;;;;;;2.03;1.40;;;18.90;55.70;21.00;93331.00;;;;10426996;28;45224;-64
2022/08/16 16:49:31;;;;;;;1.42;1.20;;;18.90;55.50;21.00;93325.00;;;;10461959;28;45156;-64
2022/08/16 16:54:53;;;;;;;1.88;1.27;;;18.90;55.30;21.00;93326.00;;;;10448755;28;45283;-64
2022/08/16 17:00:15;;;;;;;2.70;1.50;;;18.90;55.20;21.00;93322.00;;;;10466895;28;45351;-64
2022/08/16 17:05:36;;;;;;;1.70;1.20;;;18.90;55.20;21.00;93310.00;;;;10471296;28;45185;-64
2022/08/16 17:10:59;;;;;;;1.70;1.20;;;19.00;55.20;21.00;93312.00;;;;10462181;28;45235;-65
2022/08/16 17:16:20;;;;;;;1.25;1.15;;;19.00;55.20;21.00;93319.00;;;;10467818;28;45189;-65
2022/08/16 17:21:41;;;;;;;1.40;1.27;;;18.90;55.10;21.00;93310.00;;;;10469650;28;45902;-64
2022/08/16 17:27:02;;;;;;;2.97;1.33;;;18.90;55.20;21.00;93297.00;;;;10452897;28;45169;-64
2022/08/16 17:32:23;;;;;;;1.75;1.17;;;18.90;55.20;21.00;93311.00;;;;10456694;28;45510;-64
2022/08/16 17:37:44;;;;;;;2.13;1.20;;;18.90;55.20;21.00;93313.00;;;;10456443;28;45871;-64
2022/08/16 17:43:06;;;;;;;2.17;1.40;;;18.90;55.20;21.00;93314.00;;;;10464750;28;45261;-63
2022/08/16 17:48:29;;;;;;;3.38;1.25;;;18.90;55.30;21.00;93325.00;;;;10442195;28;45209;-64
2022/08/16 17:53:50;;;;;;;1.50;1.25;;;18.90;55.20;21.00;93322.00;;;;10469147;28;45467;-64
2022/08/16 17:59:13;;;;;;;3.25;1.33;;;18.90;55.20;21.00;93312.00;;;;10455569;28;45895;-63
2022/08/16 18:04:34;;;;;;;2.95;1.20;;;18.90;55.20;21.00;93329.00;;;;10463139;28;45265;-64
2022/08/16 18:09:54;;;;;;;3.17;1.30;;;18.90;55.20;21.00;93333.00;;;;10432066;28;45280;-64
2022/08/16 18:15:17;;;;;;;2.55;1.50;;;18.90;55.20;21.00;93326.00;;;;10458682;28;45203;-64
2022/08/16 18:26:16;;;;;;;2.15;1.38;;;18.90;55.10;21.00;93344.00;;;;10458535;28;45218;-66
2022/08/16 18:31:38;;;;;;;1.40;1.10;;;18.90;55.10;21.00;93345.00;;;;10458598;28;45273;-64
2022/08/16 18:36:59;;;;;;;2.72;1.30;;;18.90;55.10;21.00;93334.00;;;;10470457;28;45149;-65
2022/08/16 18:42:20;;;;;;;2.38;1.40;;;18.90;54.40;21.00;93334.00;;;;10471642;28;45796;-64
2022/08/16 18:47:42;;;;;;;3.58;1.70;;;18.90;54.10;20.90;93343.00;;;;10460578;28;45688;-64
2022/08/16 18:53:05;;;;;;;2.13;1.42;;;18.90;53.80;20.90;93348.00;;;;10454900;28;45513;-65
2022/08/16 18:58:31;;;;;;;2.42;1.40;;;18.90;53.40;20.90;93348.00;;;;10464184;28;45447;-64
2022/08/16 19:03:53;;;;;;;1.73;1.40;;;18.90;53.10;20.90;93331.00;;;;10452401;28;45866;-64
2022/08/16 19:09:14;;;;;;;2.47;1.30;;;18.90;52.80;20.90;93350.00;;;;10460367;28;45241;-64
2022/08/16 19:14:34;;;;;;;1.90;1.58;;;18.90;52.50;20.90;93364.00;;;;10438901;28;45289;-64
2022/08/16 19:19:56;;;;;;;2.13;1.40;;;18.90;52.30;20.90;93370.00;;;;10469923;28;45823;-65
2022/08/16 19:25:18;;;;;;;2.65;1.40;;;18.90;52.50;20.80;93365.00;;;;10440425;28;45332;-64
2022/08/16 19:30:39;;;;;;;2.05;1.60;;;18.80;52.30;20.90;93366.00;;;;10429677;28;45224;-64
2022/08/16 19:36:01;;;;;;;3.25;1.40;;;18.80;52.50;20.90;93373.00;;;;10428580;28;45225;-64
2022/08/16 19:41:22;;;;;;;1.65;1.38;;;18.80;51.60;20.90;93381.00;;;;10457301;28;45245;-65
2022/08/16 19:46:45;;;;;;;2.92;1.40;;;18.80;52.30;20.90;93387.00;;;;10470281;28;45410;-65
2022/08/16 19:52:17;;;;;;;1.90;1.30;;;18.80;51.40;20.90;93375.00;;;;10470810;28;45719;-65
2022/08/16 19:57:39;;;;;;;2.30;1.70;;;18.80;51.70;20.90;93382.00;;;;10470087;28;45408;-65
2022/08/16 20:03:00;;;;;;;3.25;1.48;;;18.80;51.60;20.90;93387.00;;;;10470722;28;45347;-65
2022/08/16 20:08:22;;;;;;;2.10;1.40;;;18.80;51.20;20.80;93388.00;;;;10468453;28;45831;-65
2022/08/16 20:13:43;;;;;;;2.22;1.70;;;18.80;51.00;20.80;93382.00;;;;10469263;28;45199;-65
2022/08/16 20:19:04;;;;;;;2.90;1.75;;;18.80;50.90;20.80;93391.00;;;;10453455;28;45163;-65
2022/08/16 20:24:27;;;;;;;2.17;1.55;;;18.80;50.80;20.80;93387.00;;;;10446001;28;45256;-63
2022/08/16 20:29:49;;;;;;;2.92;1.55;;;18.80;50.90;20.80;93382.00;;;;10434442;28;45228;-64
2022/08/16 20:35:13;;;;;;;3.55;1.50;;;18.80;50.90;20.80;93391.00;;;;10453947;28;45126;-64
2022/08/16 20:40:35;;;;;;;2.55;1.65;;;18.80;51.00;20.80;93400.00;;;;10475812;28;45234;-64
2022/08/16 20:45:56;;;;;;;2.10;1.60;;;18.80;51.00;20.80;93387.00;;;;10476068;28;45179;-64
2022/08/16 20:51:16;;;;;;;1.67;1.30;;;18.80;50.50;20.80;93359.00;;;;10475896;28;45322;-64
2022/08/16 20:56:38;;;;;;;2.53;1.60;;;18.80;50.90;20.80;93380.00;;;;10475501;28;45139;-64
2022/08/16 21:01:59;;;;;;;1.70;1.45;;;18.80;50.80;20.80;93385.00;;;;10467400;28;45175;-64
2022/08/16 21:07:20;;;;;;;2.38;1.52;;;18.80;50.80;20.80;93398.00;;;;10476237;28;45127;-64
2022/08/16 21:12:50;;;;;;;2.83;1.40;;;18.80;50.60;20.70;93390.00;;;;10475675;28;45168;-63
2022/08/16 21:18:11;;;;;;;2.28;1.45;;;18.70;50.60;20.80;93403.00;;;;10465890;28;45700;-63
2022/08/16 21:23:31;;;;;;;4.10;1.77;;;18.70;50.70;20.70;93400.00;;;;10448169;28;45226;-64
2022/08/16 21:28:54;;;;;;;2.63;1.63;;;18.80;50.80;20.80;93418.00;;;;10432984;28;45269;-63
2022/08/16 21:34:15;;;;;;;2.00;1.50;;;18.80;50.90;20.80;93420.00;;;;10456101;28;45557;-63
2022/08/16 21:39:35;;;;;;;2.45;1.75;;;18.80;51.10;20.80;93407.00;;;;10446526;28;45294;-64
2022/08/16 21:44:57;;;;;;;2.30;1.38;;;18.80;51.00;20.80;93410.00;;;;10432809;28;45216;-64
2022/08/16 21:50:18;;;;;;;1.48;1.30;;;18.70;51.20;20.80;93428.00;;;;10459310;28;45163;-64
2022/08/16 21:55:41;;;;;;;2.88;1.60;;;18.70;51.40;20.80;93419.00;;;;10446314;28;45307;-64
2022/08/16 22:01:03;;;;;;;2.05;1.40;;;18.70;51.50;20.80;93415.00;;;;10467258;28;45143;-64
2022/08/16 22:06:24;;;;;;;2.05;1.55;;;18.70;51.70;20.80;93415.00;;;;10450672;28;45219;-63
2022/08/16 22:11:45;;;;;;;2.63;1.60;;;18.80;51.90;20.80;93407.00;;;;10431452;28;45676;-64
2022/08/16 22:17:07;;;;;;;3.38;1.80;;;18.80;52.10;20.70;93422.00;;;;10431637;28;45802;-64
2022/08/16 22:22:30;;;;;;;1.95;1.63;;;18.70;52.30;20.70;93413.00;;;;10430745;28;45192;-64
2022/08/16 22:27:50;;;;;;;4.03;1.67;;;18.70;52.50;20.70;93412.00;;;;10431173;28;45132;-64
2022/08/16 22:33:16;;;;;;;2.95;1.70;;;18.70;52.60;20.70;93414.00;;;;10431171;28;45520;-64
2022/08/16 22:38:36;;;;;;;3.10;1.65;;;18.70;52.60;20.70;93413.00;;;;10457106;28;45767;-64
2022/08/16 22:43:57;;;;;;;2.47;1.65;;;18.70;52.70;20.70;93398.00;;;;10444181;28;45288;-64
2022/08/16 22:49:19;;;;;;;2.38;1.60;;;18.70;52.70;20.70;93404.00;;;;10444088;28;45326;-63
2022/08/16 22:54:40;;;;;;;3.63;1.77;;;18.80;52.80;20.70;93391.00;;;;10469583;28;45111;-64
2022/08/16 23:00:00;;;;;;;2.70;1.58;;;18.70;52.90;20.70;93309.00;;;;10466855;28;45179;-64
2022/08/16 23:05:24;;;;;;;2.05;1.50;;;18.70;53.00;20.70;93392.00;;;;10479078;28;45139;-64
2022/08/16 23:10:47;;;;;;;2.25;1.55;;;18.70;53.10;20.70;93382.00;;;;10451717;28;45343;-63
2022/08/16 23:16:08;;;;;;;3.05;1.60;;;18.70;53.20;20.70;93382.00;;;;10456214;28;45192;-64
2022/08/16 23:21:31;;;;;;;2.50;1.40;;;18.70;53.20;20.70;93381.00;;;;10462141;28;45153;-65
2022/08/16 23:26:51;;;;;;;2.83;1.80;;;18.70;53.30;20.80;93374.00;;;;10463539;28;45154;-64
2022/08/16 23:32:13;;;;;;;3.47;1.70;;;18.70;53.40;20.80;93400.00;;;;10463160;28;45172;-65
2022/08/16 23:37:35;;;;;;;1.98;1.60;;;18.70;53.40;20.70;93381.00;;;;10449155;28;45188;-64
2022/08/16 23:42:58;;;;;;;3.55;1.70;;;18.70;53.50;20.70;93395.00;;;;10464084;28;45291;-63
2022/08/16 23:48:22;;;;;;;2.53;1.58;;;18.70;53.60;20.70;93382.00;;;;10457783;28;45147;-64